sensor_id;sensor_type;location;lat;lon;timestamp;pressure;altitude;pressure_sealevel;temperature;humidity
60089;BME280;45961;53.574;55.878;2023-05-23T00:00:37;101022.25;;;10.93;67.41
60089;BME280;45961;53.574;55.878;2023-05-23T00:01:38;101039.69;;;11.01;67.22
60089;BME280;45961;53.574;55.878;2023-05-23T00:02:39;101035.50;;;11.08;66.73
60089;BME280;45961;53.574;55.878;2023-05-23T00:03:40;101034.56;;;11.04;66.67
60089;BME280;45961;53.574;55.878;2023-05-23T00:04:41;101047.38;;;10.97;67.17
60089;BME280;45961;53.574;55.878;2023-05-23T00:05:42;101043.75;;;10.88;68.01
60089;BME280;45961;53.574;55.878;2023-05-23T00:06:43;101043.75;;;10.88;67.83
60089;BME280;45961;53.574;55.878;2023-05-23T00:07:50;101042.94;;;10.90;67.30
60089;BME280;45961;53.574;55.878;2023-05-23T00:08:51;101047.28;;;10.92;67.20
60089;BME280;45961;53.574;55.878;2023-05-23T00:09:52;101043.91;;;10.96;67.57
60089;BME280;45961;53.574;55.878;2023-05-23T00:10:53;101038.72;;;10.95;67.55
60089;BME280;45961;53.574;55.878;2023-05-23T00:11:54;101034.84;;;10.76;68.37
60089;BME280;45961;53.574;55.878;2023-05-23T00:12:55;101047.81;;;10.76;68.73
60089;BME280;45961;53.574;55.878;2023-05-23T00:13:57;101040.88;;;10.75;68.45
60089;BME280;45961;53.574;55.878;2023-05-23T00:15:00;101048.66;;;10.76;68.18
60089;BME280;45961;53.574;55.878;2023-05-23T00:16:05;101046.13;;;10.78;68.22
60089;BME280;45961;53.574;55.878;2023-05-23T00:17:09;101043.72;;;10.85;67.97
60089;BME280;45961;53.574;55.878;2023-05-23T00:18:13;101046.06;;;10.76;68.08
60089;BME280;45961;53.574;55.878;2023-05-23T00:19:15;101049.38;;;10.69;68.50
60089;BME280;45961;53.574;55.878;2023-05-23T00:20:16;101043.06;;;10.56;69.02
60089;BME280;45961;53.574;55.878;2023-05-23T00:21:17;101051.66;;;10.54;69.68
60089;BME280;45961;53.574;55.878;2023-05-23T00:22:18;101052.00;;;10.71;69.53
60089;BME280;45961;53.574;55.878;2023-05-23T00:23:19;101050.38;;;10.74;69.03
60089;BME280;45961;53.574;55.878;2023-05-23T00:24:22;101049.59;;;10.78;68.84
60089;BME280;45961;53.574;55.878;2023-05-23T00:25:23;101055.66;;;10.80;69.10
60089;BME280;45961;53.574;55.878;2023-05-23T00:26:24;101046.94;;;10.77;69.15
60089;BME280;45961;53.574;55.878;2023-05-23T00:27:29;101059.03;;;10.76;69.44
60089;BME280;45961;53.574;55.878;2023-05-23T00:28:30;101057.19;;;10.71;69.47
60089;BME280;45961;53.574;55.878;2023-05-23T00:29:31;101055.38;;;10.67;69.33
60089;BME280;45961;53.574;55.878;2023-05-23T00:30:32;101057.13;;;10.68;69.52
60089;BME280;45961;53.574;55.878;2023-05-23T00:31:34;101054.59;;;10.71;69.30
60089;BME280;45961;53.574;55.878;2023-05-23T00:32:36;101044.91;;;10.62;69.27
60089;BME280;45961;53.574;55.878;2023-05-23T00:33:37;101051.16;;;10.72;69.12
60089;BME280;45961;53.574;55.878;2023-05-23T00:34:38;101055.50;;;10.73;68.92
60089;BME280;45961;53.574;55.878;2023-05-23T00:35:42;101053.06;;;10.80;68.48
60089;BME280;45961;53.574;55.878;2023-05-23T00:36:43;101047.94;;;10.82;68.28
60089;BME280;45961;53.574;55.878;2023-05-23T00:37:48;101051.31;;;10.78;68.48
60089;BME280;45961;53.574;55.878;2023-05-23T00:38:52;101060.13;;;10.87;68.42
60089;BME280;45961;53.574;55.878;2023-05-23T00:39:53;101052.44;;;10.91;68.42
60089;BME280;45961;53.574;55.878;2023-05-23T00:40:55;101057.63;;;10.91;68.38
60089;BME280;45961;53.574;55.878;2023-05-23T00:41:56;101063.84;;;11.00;68.12
60089;BME280;45961;53.574;55.878;2023-05-23T00:42:57;101059.63;;;11.05;68.00
60089;BME280;45961;53.574;55.878;2023-05-23T00:43:58;101062.97;;;11.00;68.46
60089;BME280;45961;53.574;55.878;2023-05-23T00:44:59;101063.84;;;11.00;68.95
60089;BME280;45961;53.574;55.878;2023-05-23T00:46:00;101074.13;;;10.96;69.32
60089;BME280;45961;53.574;55.878;2023-05-23T00:47:02;101075.84;;;10.95;69.34
60089;BME280;45961;53.574;55.878;2023-05-23T00:48:05;101077.59;;;10.96;68.85
60089;BME280;45961;53.574;55.878;2023-05-23T00:49:07;101074.28;;;11.02;68.71
60089;BME280;45961;53.574;55.878;2023-05-23T00:50:10;101066.34;;;10.94;68.39
60089;BME280;45961;53.574;55.878;2023-05-23T00:51:12;101061.94;;;10.90;68.19
60089;BME280;45961;53.574;55.878;2023-05-23T00:52:13;101073.34;;;11.00;68.17
60089;BME280;45961;53.574;55.878;2023-05-23T00:53:15;101078.66;;;11.06;68.09
60089;BME280;45961;53.574;55.878;2023-05-23T00:54:21;101071.69;;;11.03;68.42
60089;BME280;45961;53.574;55.878;2023-05-23T00:55:23;101073.41;;;11.03;68.12
60089;BME280;45961;53.574;55.878;2023-05-23T00:56:25;101079.38;;;10.99;67.68
60089;BME280;45961;53.574;55.878;2023-05-23T00:57:27;101069.91;;;11.01;67.34
60089;BME280;45961;53.574;55.878;2023-05-23T00:58:27;101075.09;;;11.01;67.26
60089;BME280;45961;53.574;55.878;2023-05-23T00:59:29;101075.03;;;10.98;67.21
60089;BME280;45961;53.574;55.878;2023-05-23T01:00:31;101059.97;;;10.80;67.17
60089;BME280;45961;53.574;55.878;2023-05-23T01:01:34;101077.50;;;10.92;67.21
60089;BME280;45961;53.574;55.878;2023-05-23T01:02:43;101081.88;;;10.94;67.09
60089;BME280;45961;53.574;55.878;2023-05-23T01:03:44;101078.41;;;10.94;67.13
60089;BME280;45961;53.574;55.878;2023-05-23T01:04:51;101073.25;;;10.95;67.18
60089;BME280;45961;53.574;55.878;2023-05-23T01:05:54;101075.03;;;10.98;67.08
60089;BME280;45961;53.574;55.878;2023-05-23T01:06:56;101075.16;;;11.04;66.97
60089;BME280;45961;53.574;55.878;2023-05-23T01:07:57;101078.66;;;11.06;66.99
60089;BME280;45961;53.574;55.878;2023-05-23T01:08:58;101068.34;;;11.09;66.68
60089;BME280;45961;53.574;55.878;2023-05-23T01:10:03;101075.34;;;11.13;66.72
60089;BME280;45961;53.574;55.878;2023-05-23T01:11:13;101080.81;;;11.27;66.32
60089;BME280;45961;53.574;55.878;2023-05-23T01:12:31;101075.72;;;11.30;66.25
60089;BME280;45961;53.574;55.878;2023-05-23T01:13:46;101081.91;;;11.38;65.96
60089;BME280;45961;53.574;55.878;2023-05-23T01:15:05;101089.22;;;11.60;65.41
60089;BME280;45961;53.574;55.878;2023-05-23T01:16:14;101089.16;;;11.57;65.46
60089;BME280;45961;53.574;55.878;2023-05-23T01:17:24;101098.66;;;11.57;65.66
60089;BME280;45961;53.574;55.878;2023-05-23T01:18:37;101112.78;;;11.71;65.49
60089;BME280;45961;53.574;55.878;2023-05-23T01:20:00;101091.88;;;11.62;65.66
60089;BME280;45961;53.574;55.878;2023-05-23T01:21:11;101101.56;;;11.72;65.72
60089;BME280;45961;53.574;55.878;2023-05-23T01:24:22;101109.72;;;11.91;65.60
60089;BME280;45961;53.574;55.878;2023-05-23T01:27:22;101110.59;;;11.93;64.61
60089;BME280;45961;53.574;55.878;2023-05-23T01:28:40;101114.69;;;12.30;64.17
60089;BME280;45961;53.574;55.878;2023-05-23T01:29:45;101111.53;;;12.46;64.05
60089;BME280;45961;53.574;55.878;2023-05-23T01:30:51;101117.03;;;12.68;63.28
60089;BME280;45961;53.574;55.878;2023-05-23T01:31:56;101114.13;;;13.07;62.40
60089;BME280;45961;53.574;55.878;2023-05-23T01:32:58;101111.09;;;13.42;61.27
60089;BME280;45961;53.574;55.878;2023-05-23T01:34:01;101100.25;;;13.79;59.70
60089;BME280;45961;53.574;55.878;2023-05-23T01:35:03;101109.31;;;14.23;59.17
60089;BME280;45961;53.574;55.878;2023-05-23T01:36:05;101103.56;;;14.62;58.39
60089;BME280;45961;53.574;55.878;2023-05-23T01:37:09;101101.28;;;15.20;56.76
60089;BME280;45961;53.574;55.878;2023-05-23T01:38:10;101098.72;;;15.33;55.58
60089;BME280;45961;53.574;55.878;2023-05-23T01:39:13;101107.47;;;15.47;55.27
60089;BME280;45961;53.574;55.878;2023-05-23T01:40:14;101108.47;;;16.07;54.56
60089;BME280;45961;53.574;55.878;2023-05-23T01:41:16;101113.69;;;15.89;53.92
60089;BME280;45961;53.574;55.878;2023-05-23T01:42:17;101120.66;;;15.91;54.57
60089;BME280;45961;53.574;55.878;2023-05-23T01:43:19;101117.06;;;15.57;55.37
60089;BME280;45961;53.574;55.878;2023-05-23T01:44:21;101120.53;;;15.58;55.41
60089;BME280;45961;53.574;55.878;2023-05-23T01:45:22;101120.56;;;15.61;55.36
60089;BME280;45961;53.574;55.878;2023-05-23T01:46:26;101117.06;;;15.54;55.24
60089;BME280;45961;53.574;55.878;2023-05-23T01:47:28;101117.00;;;15.39;56.58
60089;BME280;45961;53.574;55.878;2023-05-23T01:48:30;101119.75;;;15.68;56.06
60089;BME280;45961;53.574;55.878;2023-05-23T01:49:33;101117.06;;;15.52;55.44
60089;BME280;45961;53.574;55.878;2023-05-23T01:50:35;101119.75;;;15.77;55.23
60089;BME280;45961;53.574;55.878;2023-05-23T01:51:38;101115.47;;;16.00;54.15
60089;BME280;45961;53.574;55.878;2023-05-23T01:52:40;101119.81;;;16.17;54.18
60089;BME280;45961;53.574;55.878;2023-05-23T01:53:40;101121.56;;;16.48;52.97
60089;BME280;45961;53.574;55.878;2023-05-23T01:54:42;101127.63;;;16.52;53.58
60089;BME280;45961;53.574;55.878;2023-05-23T01:55:44;101121.53;;;16.84;51.98
60089;BME280;45961;53.574;55.878;2023-05-23T01:56:47;101126.72;;;16.96;51.07
60089;BME280;45961;53.574;55.878;2023-05-23T01:57:50;101128.38;;;17.23;51.26
60089;BME280;45961;53.574;55.878;2023-05-23T01:58:51;101126.63;;;17.28;50.81
60089;BME280;45961;53.574;55.878;2023-05-23T01:59:52;101126.53;;;17.49;50.54
60089;BME280;45961;53.574;55.878;2023-05-23T02:00:54;101127.28;;;17.68;50.32
60089;BME280;45961;53.574;55.878;2023-05-23T02:01:58;101124.75;;;17.55;50.90
60089;BME280;45961;53.574;55.878;2023-05-23T02:02:59;101131.84;;;17.28;50.17
60089;BME280;45961;53.574;55.878;2023-05-23T02:04:00;101127.53;;;17.12;50.46
60089;BME280;45961;53.574;55.878;2023-05-23T02:05:01;101129.34;;;16.99;50.58
60089;BME280;45961;53.574;55.878;2023-05-23T02:06:02;101138.94;;;17.01;50.22
60089;BME280;45961;53.574;55.878;2023-05-23T02:07:03;101132.72;;;17.28;50.18
60089;BME280;45961;53.574;55.878;2023-05-23T02:08:05;101129.03;;;17.79;50.07
60089;BME280;45961;53.574;55.878;2023-05-23T02:09:06;101135.75;;;18.16;48.64
60089;BME280;45961;53.574;55.878;2023-05-23T02:10:08;101134.63;;;18.49;50.19
60089;BME280;45961;53.574;55.878;2023-05-23T02:11:13;101132.81;;;18.55;48.42
60089;BME280;45961;53.574;55.878;2023-05-23T02:12:14;101137.22;;;18.51;46.84
60089;BME280;45961;53.574;55.878;2023-05-23T02:13:15;101132.00;;;18.45;46.97
60089;BME280;45961;53.574;55.878;2023-05-23T02:14:16;101126.41;;;18.85;46.47
60089;BME280;45961;53.574;55.878;2023-05-23T02:15:18;101133.50;;;18.77;46.26
60089;BME280;45961;53.574;55.878;2023-05-23T02:16:19;101134.50;;;18.62;46.15
60089;BME280;45961;53.574;55.878;2023-05-23T02:17:21;101135.28;;;18.74;46.10
60089;BME280;45961;53.574;55.878;2023-05-23T02:18:22;101131.78;;;18.76;46.17
60089;BME280;45961;53.574;55.878;2023-05-23T02:19:47;101132.56;;;18.84;45.23
60089;BME280;45961;53.574;55.878;2023-05-23T02:20:48;101128.94;;;18.95;46.57
60089;BME280;45961;53.574;55.878;2023-05-23T02:21:49;101130.47;;;19.15;46.45
60089;BME280;45961;53.574;55.878;2023-05-23T02:22:50;101130.34;;;19.24;46.13
60089;BME280;45961;53.574;55.878;2023-05-23T02:23:51;101118.22;;;19.15;46.32
60089;BME280;45961;53.574;55.878;2023-05-23T02:24:52;101131.66;;;18.86;46.85
60089;BME280;45961;53.574;55.878;2023-05-23T02:25:53;101129.25;;;18.60;46.84
60089;BME280;45961;53.574;55.878;2023-05-23T02:26:55;101136.06;;;18.86;46.92
60089;BME280;45961;53.574;55.878;2023-05-23T02:27:56;101136.16;;;18.72;46.47
60089;BME280;45961;53.574;55.878;2023-05-23T02:28:57;101139.91;;;18.43;46.65
60089;BME280;45961;53.574;55.878;2023-05-23T02:29:58;101136.94;;;18.83;46.96
60089;BME280;45961;53.574;55.878;2023-05-23T02:31:00;101145.63;;;18.90;47.30
60089;BME280;45961;53.574;55.878;2023-05-23T02:32:01;101139.31;;;19.05;47.98
60089;BME280;45961;53.574;55.878;2023-05-23T02:33:06;101134.00;;;19.09;47.55
60089;BME280;45961;53.574;55.878;2023-05-23T02:34:07;101128.53;;;19.31;46.94
60089;BME280;45961;53.574;55.878;2023-05-23T02:35:08;101134.28;;;18.86;46.83
60089;BME280;45961;53.574;55.878;2023-05-23T02:36:10;101145.41;;;19.08;47.70
60089;BME280;45961;53.574;55.878;2023-05-23T02:37:13;101139.25;;;19.14;47.35
60089;BME280;45961;53.574;55.878;2023-05-23T02:38:15;101147.88;;;19.23;47.31
60089;BME280;45961;53.574;55.878;2023-05-23T02:39:16;101149.28;;;19.51;46.38
60089;BME280;45961;53.574;55.878;2023-05-23T02:40:20;101141.50;;;19.41;46.33
60089;BME280;45961;53.574;55.878;2023-05-23T02:41:20;101145.25;;;19.23;46.38
60089;BME280;45961;53.574;55.878;2023-05-23T02:42:22;101151.31;;;19.27;46.86
60089;BME280;45961;53.574;55.878;2023-05-23T02:43:24;101145.72;;;19.53;46.07
60089;BME280;45961;53.574;55.878;2023-05-23T02:44:25;101149.56;;;19.28;45.79
60089;BME280;45961;53.574;55.878;2023-05-23T02:45:26;101150.91;;;19.59;45.46
60089;BME280;45961;53.574;55.878;2023-05-23T02:46:27;101148.44;;;19.47;46.26
60089;BME280;45961;53.574;55.878;2023-05-23T02:47:28;101147.41;;;18.85;46.43
60089;BME280;45961;53.574;55.878;2023-05-23T02:48:32;101159.13;;;18.45;47.69
60089;BME280;45961;53.574;55.878;2023-05-23T02:49:34;101153.50;;;18.88;47.13
60089;BME280;45961;53.574;55.878;2023-05-23T02:50:35;101145.91;;;18.58;47.06
60089;BME280;45961;53.574;55.878;2023-05-23T02:51:36;101159.09;;;18.47;47.54
60089;BME280;45961;53.574;55.878;2023-05-23T02:52:37;101146.03;;;18.41;47.81
60089;BME280;45961;53.574;55.878;2023-05-23T02:53:38;101149.13;;;18.90;47.24
60089;BME280;45961;53.574;55.878;2023-05-23T02:54:39;101149.22;;;18.77;47.16
60089;BME280;45961;53.574;55.878;2023-05-23T02:55:40;101149.78;;;19.08;46.91
60089;BME280;45961;53.574;55.878;2023-05-23T02:56:44;101144.91;;;19.49;45.70
60089;BME280;45961;53.574;55.878;2023-05-23T02:57:46;101148.38;;;19.52;45.81
60089;BME280;45961;53.574;55.878;2023-05-23T02:58:47;101141.59;;;19.35;46.81
60089;BME280;45961;53.574;55.878;2023-05-23T02:59:48;101145.66;;;19.62;46.31
60089;BME280;45961;53.574;55.878;2023-05-23T03:00:49;101151.47;;;19.84;46.43
60089;BME280;45961;53.574;55.878;2023-05-23T03:01:50;101148.81;;;19.86;45.51
60089;BME280;45961;53.574;55.878;2023-05-23T03:02:51;101137.56;;;20.35;44.77
60089;BME280;45961;53.574;55.878;2023-05-23T03:03:53;101141.72;;;20.48;44.91
60089;BME280;45961;53.574;55.878;2023-05-23T03:04:54;101132.41;;;20.29;44.38
60089;BME280;45961;53.574;55.878;2023-05-23T03:05:57;101148.88;;;20.40;44.44
60089;BME280;45961;53.574;55.878;2023-05-23T03:06:58;101141.25;;;20.21;45.13
60089;BME280;45961;53.574;55.878;2023-05-23T03:07:59;101139.09;;;19.94;45.13
60089;BME280;45961;53.574;55.878;2023-05-23T03:09:00;101141.72;;;19.94;45.70
60089;BME280;45961;53.574;55.878;2023-05-23T03:10:01;101143.94;;;19.57;44.78
60089;BME280;45961;53.574;55.878;2023-05-23T03:11:02;101141.38;;;20.15;43.77
60089;BME280;45961;53.574;55.878;2023-05-23T03:12:04;101139.59;;;20.17;44.29
60089;BME280;45961;53.574;55.878;2023-05-23T03:13:06;101151.03;;;19.52;45.80
60089;BME280;45961;53.574;55.878;2023-05-23T03:14:07;101155.19;;;19.69;45.95
60089;BME280;45961;53.574;55.878;2023-05-23T03:15:09;101157.63;;;19.83;46.13
60089;BME280;45961;53.574;55.878;2023-05-23T03:16:12;101153.78;;;20.07;45.31
60089;BME280;45961;53.574;55.878;2023-05-23T03:17:13;101149.81;;;20.36;45.21
60089;BME280;45961;53.574;55.878;2023-05-23T03:18:14;101157.50;;;20.51;45.10
60089;BME280;45961;53.574;55.878;2023-05-23T03:19:16;101144.63;;;20.82;44.34
60089;BME280;45961;53.574;55.878;2023-05-23T03:20:17;101140.81;;;21.00;44.19
60089;BME280;45961;53.574;55.878;2023-05-23T03:21:18;101145.44;;;20.87;43.31
60089;BME280;45961;53.574;55.878;2023-05-23T03:22:19;101150.75;;;21.29;43.47
60089;BME280;45961;53.574;55.878;2023-05-23T03:23:20;101148.28;;;21.65;42.67
60089;BME280;45961;53.574;55.878;2023-05-23T03:24:21;101143.38;;;21.48;41.98
60089;BME280;45961;53.574;55.878;2023-05-23T03:25:23;101152.44;;;21.35;42.55
60089;BME280;45961;53.574;55.878;2023-05-23T03:26:25;101147.00;;;21.42;42.95
60089;BME280;45961;53.574;55.878;2023-05-23T03:27:27;101149.09;;;21.68;42.86
60089;BME280;45961;53.574;55.878;2023-05-23T03:28:29;101150.97;;;21.62;42.73
60089;BME280;45961;53.574;55.878;2023-05-23T03:29:30;101147.47;;;21.61;42.77
60089;BME280;45961;53.574;55.878;2023-05-23T03:30:32;101155.69;;;21.46;43.41
60089;BME280;45961;53.574;55.878;2023-05-23T03:31:33;101146.00;;;21.48;43.68
60089;BME280;45961;53.574;55.878;2023-05-23T03:32:34;101154.31;;;21.70;43.41
60089;BME280;45961;53.574;55.878;2023-05-23T03:33:35;101151.16;;;21.93;43.32
60089;BME280;45961;53.574;55.878;2023-05-23T03:34:36;101141.69;;;21.84;42.98
60089;BME280;45961;53.574;55.878;2023-05-23T03:35:38;101150.81;;;22.08;42.40
60089;BME280;45961;53.574;55.878;2023-05-23T03:36:40;101149.09;;;22.07;41.37
60089;BME280;45961;53.574;55.878;2023-05-23T03:37:41;101149.31;;;21.97;40.34
60089;BME280;45961;53.574;55.878;2023-05-23T03:38:42;101142.78;;;22.14;40.57
60089;BME280;45961;53.574;55.878;2023-05-23T03:39:43;101142.53;;;22.25;40.03
60089;BME280;45961;53.574;55.878;2023-05-23T03:40:44;101141.47;;;22.66;40.17
60089;BME280;45961;53.574;55.878;2023-05-23T03:41:45;101144.91;;;22.36;39.87
60089;BME280;45961;53.574;55.878;2023-05-23T03:43:00;101134.75;;;22.19;40.09
60089;BME280;45961;53.574;55.878;2023-05-23T03:44:02;101144.81;;;22.39;39.95
60089;BME280;45961;53.574;55.878;2023-05-23T03:45:04;101134.97;;;22.46;39.35
60089;BME280;45961;53.574;55.878;2023-05-23T03:46:06;101137.66;;;22.44;39.92
60089;BME280;45961;53.574;55.878;2023-05-23T03:47:07;101137.88;;;22.35;40.29
60089;BME280;45961;53.574;55.878;2023-05-23T03:48:10;101138.22;;;22.21;40.78
60089;BME280;45961;53.574;55.878;2023-05-23T03:49:12;101139.19;;;22.17;40.65
60089;BME280;45961;53.574;55.878;2023-05-23T03:50:14;101140.38;;;22.41;40.30
60089;BME280;45961;53.574;55.878;2023-05-23T03:51:15;101134.63;;;22.59;41.09
60089;BME280;45961;53.574;55.878;2023-05-23T03:52:16;101144.97;;;22.33;40.50
60089;BME280;45961;53.574;55.878;2023-05-23T03:53:18;101143.31;;;22.29;40.50
60089;BME280;45961;53.574;55.878;2023-05-23T03:54:19;101134.41;;;22.33;40.91
60089;BME280;45961;53.574;55.878;2023-05-23T03:55:21;101139.69;;;22.67;41.48
60089;BME280;45961;53.574;55.878;2023-05-23T03:56:24;101134.78;;;22.86;41.54
60089;BME280;45961;53.574;55.878;2023-05-23T03:57:27;101134.84;;;22.83;40.91
60089;BME280;45961;53.574;55.878;2023-05-23T03:58:31;101141.19;;;22.77;39.45
60089;BME280;45961;53.574;55.878;2023-05-23T03:59:36;101144.09;;;23.01;39.78
60089;BME280;45961;53.574;55.878;2023-05-23T04:00:40;101147.31;;;23.12;39.87
60089;BME280;45961;53.574;55.878;2023-05-23T04:01:42;101141.34;;;23.05;39.88
60089;BME280;45961;53.574;55.878;2023-05-23T04:02:44;101139.75;;;23.00;38.94
60089;BME280;45961;53.574;55.878;2023-05-23T04:03:52;101146.22;;;22.86;39.66
60089;BME280;45961;53.574;55.878;2023-05-23T04:04:53;101141.72;;;22.57;38.63
60089;BME280;45961;53.574;55.878;2023-05-23T04:05:58;101146.09;;;22.93;39.76
60089;BME280;45961;53.574;55.878;2023-05-23T04:07:00;101143.66;;;22.83;40.23
60089;BME280;45961;53.574;55.878;2023-05-23T04:08:02;101138.97;;;22.96;40.47
60089;BME280;45961;53.574;55.878;2023-05-23T04:09:05;101139.00;;;23.26;41.02
60089;BME280;45961;53.574;55.878;2023-05-23T04:10:09;101143.53;;;23.21;39.77
60089;BME280;45961;53.574;55.878;2023-05-23T04:11:10;101141.41;;;23.33;40.63
60089;BME280;45961;53.574;55.878;2023-05-23T04:12:14;101144.63;;;23.45;40.76
60089;BME280;45961;53.574;55.878;2023-05-23T04:13:15;101140.06;;;23.50;41.58
60089;BME280;45961;53.574;55.878;2023-05-23T04:14:16;101144.41;;;23.51;40.10
60089;BME280;45961;53.574;55.878;2023-05-23T04:15:20;101144.75;;;23.70;39.53
60089;BME280;45961;53.574;55.878;2023-05-23T04:16:36;101145.97;;;23.58;39.31
60089;BME280;45961;53.574;55.878;2023-05-23T04:17:41;101146.31;;;23.77;39.69
60089;BME280;45961;53.574;55.878;2023-05-23T04:18:44;101140.41;;;23.69;38.32
60089;BME280;45961;53.574;55.878;2023-05-23T04:19:48;101140.06;;;23.79;38.55
60089;BME280;45961;53.574;55.878;2023-05-23T04:20:49;101140.78;;;24.12;39.60
60089;BME280;45961;53.574;55.878;2023-05-23T04:21:50;101148.13;;;24.03;37.37
60089;BME280;45961;53.574;55.878;2023-05-23T04:22:52;101138.88;;;23.60;38.52
60089;BME280;45961;53.574;55.878;2023-05-23T04:23:53;101143.47;;;23.53;38.26
60089;BME280;45961;53.574;55.878;2023-05-23T04:24:54;101139.81;;;23.57;36.56
60089;BME280;45961;53.574;55.878;2023-05-23T04:25:56;101144.56;;;23.76;35.75
60089;BME280;45961;53.574;55.878;2023-05-23T04:27:06;101141.59;;;23.86;36.95
60089;BME280;45961;53.574;55.878;2023-05-23T04:28:07;101144.94;;;23.92;36.52
60089;BME280;45961;53.574;55.878;2023-05-23T04:29:10;101145.47;;;24.04;36.25
60089;BME280;45961;53.574;55.878;2023-05-23T04:30:12;101149.19;;;23.69;36.76
60089;BME280;45961;53.574;55.878;2023-05-23T04:31:16;101146.72;;;23.91;36.88
60089;BME280;45961;53.574;55.878;2023-05-23T04:32:17;101137.69;;;23.98;35.94
60089;BME280;45961;53.574;55.878;2023-05-23T04:33:19;101154.50;;;23.97;36.98
60089;BME280;45961;53.574;55.878;2023-05-23T04:34:20;101143.69;;;24.03;35.98
60089;BME280;45961;53.574;55.878;2023-05-23T04:35:22;101148.59;;;23.87;35.71
60089;BME280;45961;53.574;55.878;2023-05-23T04:36:24;101146.16;;;23.52;35.67
60089;BME280;45961;53.574;55.878;2023-05-23T04:37:28;101154.97;;;23.82;35.62
60089;BME280;45961;53.574;55.878;2023-05-23T04:38:29;101152.47;;;23.77;35.19
60089;BME280;45961;53.574;55.878;2023-05-23T04:39:38;101153.50;;;23.72;35.22
60089;BME280;45961;53.574;55.878;2023-05-23T04:41:10;101149.19;;;23.97;35.25
60089;BME280;45961;53.574;55.878;2023-05-23T04:42:22;101146.16;;;24.09;34.10
60089;BME280;45961;53.574;55.878;2023-05-23T04:43:36;101150.47;;;24.12;34.43
60089;BME280;45961;53.574;55.878;2023-05-23T04:44:53;101146.94;;;24.13;34.65
60089;BME280;45961;53.574;55.878;2023-05-23T04:46:10;101151.44;;;24.09;33.76
60089;BME280;45961;53.574;55.878;2023-05-23T04:47:18;101153.16;;;24.38;34.45
60089;BME280;45961;53.574;55.878;2023-05-23T04:48:28;101146.16;;;24.36;36.45
60089;BME280;45961;53.574;55.878;2023-05-23T04:49:31;101150.56;;;24.37;35.52
60089;BME280;45961;53.574;55.878;2023-05-23T04:50:34;101150.72;;;24.32;35.77
60089;BME280;45961;53.574;55.878;2023-05-23T04:51:37;101143.75;;;24.56;34.72
60089;BME280;45961;53.574;55.878;2023-05-23T04:52:59;101143.00;;;24.78;34.36
60089;BME280;45961;53.574;55.878;2023-05-23T04:54:01;101144.66;;;24.80;34.74
60089;BME280;45961;53.574;55.878;2023-05-23T04:55:02;101150.13;;;24.76;35.13
60089;BME280;45961;53.574;55.878;2023-05-23T04:56:04;101135.84;;;24.80;35.45
60089;BME280;45961;53.574;55.878;2023-05-23T04:57:05;101142.22;;;24.99;34.87
60089;BME280;45961;53.574;55.878;2023-05-23T04:58:07;101138.63;;;25.02;34.88
60089;BME280;45961;53.574;55.878;2023-05-23T04:59:10;101137.59;;;25.06;35.47
60089;BME280;45961;53.574;55.878;2023-05-23T05:00:12;101141.44;;;25.22;35.00
60089;BME280;45961;53.574;55.878;2023-05-23T05:01:14;101137.16;;;25.18;35.42
60089;BME280;45961;53.574;55.878;2023-05-23T05:02:15;101140.41;;;25.01;35.65
60089;BME280;45961;53.574;55.878;2023-05-23T05:03:16;101140.69;;;25.19;36.10
60089;BME280;45961;53.574;55.878;2023-05-23T05:04:20;101132.84;;;25.16;35.48
60089;BME280;45961;53.574;55.878;2023-05-23T05:05:22;101132.19;;;24.84;34.60
60089;BME280;45961;53.574;55.878;2023-05-23T05:06:26;101140.41;;;25.01;34.73
60089;BME280;45961;53.574;55.878;2023-05-23T05:07:29;101142.03;;;25.05;35.71
60089;BME280;45961;53.574;55.878;2023-05-23T05:08:31;101138.44;;;25.06;35.41
60089;BME280;45961;53.574;55.878;2023-05-23T05:09:32;101136.19;;;25.21;34.72
60089;BME280;45961;53.574;55.878;2023-05-23T05:10:33;101134.22;;;24.76;34.24
60089;BME280;45961;53.574;55.878;2023-05-23T05:11:34;101138.78;;;24.97;34.39
60089;BME280;45961;53.574;55.878;2023-05-23T05:12:36;101136.31;;;25.18;34.44
60089;BME280;45961;53.574;55.878;2023-05-23T05:13:39;101132.72;;;25.19;34.43
60089;BME280;45961;53.574;55.878;2023-05-23T05:14:40;101134.53;;;25.42;34.68
60089;BME280;45961;53.574;55.878;2023-05-23T05:15:41;101137.75;;;25.50;35.14
60089;BME280;45961;53.574;55.878;2023-05-23T05:16:42;101137.25;;;25.62;34.72
60089;BME280;45961;53.574;55.878;2023-05-23T05:17:45;101136.16;;;25.68;35.33
60089;BME280;45961;53.574;55.878;2023-05-23T05:18:48;101135.78;;;25.77;35.34
60089;BME280;45961;53.574;55.878;2023-05-23T05:19:49;101137.56;;;25.78;35.67
60089;BME280;45961;53.574;55.878;2023-05-23T05:20:51;101138.19;;;26.06;35.16
60089;BME280;45961;53.574;55.878;2023-05-23T05:21:52;101142.38;;;26.12;35.41
60089;BME280;45961;53.574;55.878;2023-05-23T05:22:56;101138.50;;;25.75;34.05
60089;BME280;45961;53.574;55.878;2023-05-23T05:23:58;101135.59;;;25.83;34.71
60089;BME280;45961;53.574;55.878;2023-05-23T05:25:00;101139.03;;;26.07;34.76
60089;BME280;45961;53.574;55.878;2023-05-23T05:26:05;101135.69;;;26.24;35.15
60089;BME280;45961;53.574;55.878;2023-05-23T05:27:06;101136.00;;;26.38;35.36
60089;BME280;45961;53.574;55.878;2023-05-23T05:28:07;101133.44;;;26.15;34.83
60089;BME280;45961;53.574;55.878;2023-05-23T05:29:35;101138.03;;;26.31;34.21